sensor_id;sensor_type;location;lat;lon;timestamp;pressure;altitude;pressure_sealevel;temperature;humidity
8890;BME280;4481;43.406;24.454;2022-07-22T00:00:41;75619.75;;;-144.09;69.04
8890;BME280;4481;43.406;24.454;2022-07-22T00:03:08;75626.03;;;-144.09;68.97
8890;BME280;4481;43.406;24.454;2022-07-22T00:05:34;75626.03;;;-144.09;69.23
8890;BME280;4481;43.406;24.454;2022-07-22T00:08:00;75628.13;;;-144.09;69.54
8890;BME280;4481;43.406;24.454;2022-07-22T00:10:27;75655.28;;;-144.09;70.45
8890;BME280;4481;43.406;24.454;2022-07-22T00:12:53;75657.38;;;-144.09;70.99
8890;BME280;4481;43.406;24.454;2022-07-22T00:15:19;75655.28;;;-144.09;71.20
8890;BME280;4481;43.406;24.454;2022-07-22T00:17:45;75663.63;;;-144.09;71.72
8890;BME280;4481;43.406;24.454;2022-07-22T00:20:12;75665.72;;;-144.09;71.74
8890;BME280;4481;43.406;24.454;2022-07-22T00:22:39;75669.91;;;-144.09;71.80
8890;BME280;4481;43.406;24.454;2022-07-22T00:25:06;75669.91;;;-144.09;71.75
8890;BME280;4481;43.406;24.454;2022-07-22T00:27:32;75663.63;;;-144.09;71.63
8890;BME280;4481;43.406;24.454;2022-07-22T00:29:58;75651.09;;;-144.09;70.38
8890;BME280;4481;43.406;24.454;2022-07-22T00:32:25;75653.19;;;-144.09;69.95
8890;BME280;4481;43.406;24.454;2022-07-22T00:34:51;75655.28;;;-144.09;70.19
8890;BME280;4481;43.406;24.454;2022-07-22T00:37:18;75665.72;;;-144.09;70.87
8890;BME280;4481;43.406;24.454;2022-07-22T00:39:44;75688.69;;;-144.09;72.00
8890;BME280;4481;43.406;24.454;2022-07-22T00:42:10;75686.59;;;-144.09;72.35
8890;BME280;4481;43.406;24.454;2022-07-22T00:44:36;75692.88;;;-144.09;72.87
8890;BME280;4481;43.406;24.454;2022-07-22T00:47:03;75694.97;;;-144.09;73.17
8890;BME280;4481;43.406;24.454;2022-07-22T00:49:29;75697.06;;;-144.09;73.11
8890;BME280;4481;43.406;24.454;2022-07-22T00:51:56;75697.06;;;-144.09;73.17
8890;BME280;4481;43.406;24.454;2022-07-22T00:54:23;75699.16;;;-144.09;73.61
8890;BME280;4481;43.406;24.454;2022-07-22T00:56:49;75686.59;;;-144.09;73.77
8890;BME280;4481;43.406;24.454;2022-07-22T00:59:15;75661.53;;;-144.09;71.42
8890;BME280;4481;43.406;24.454;2022-07-22T01:01:42;75651.09;;;-144.09;70.54
8890;BME280;4481;43.406;24.454;2022-07-22T01:04:08;75646.91;;;-144.09;69.99
8890;BME280;4481;43.406;24.454;2022-07-22T01:06:34;75646.91;;;-144.09;69.62
8890;BME280;4481;43.406;24.454;2022-07-22T01:09:01;75653.19;;;-144.09;69.55
8890;BME280;4481;43.406;24.454;2022-07-22T01:11:28;75640.66;;;-144.09;68.78
8890;BME280;4481;43.406;24.454;2022-07-22T01:13:55;75642.75;;;-144.09;68.85
8890;BME280;4481;43.406;24.454;2022-07-22T01:16:22;75651.09;;;-144.09;68.86
8890;BME280;4481;43.406;24.454;2022-07-22T01:18:48;75659.44;;;-144.09;68.78
8890;BME280;4481;43.406;24.454;2022-07-22T01:21:16;75659.44;;;-144.09;68.82
8890;BME280;4481;43.406;24.454;2022-07-22T01:23:43;75665.72;;;-144.09;68.88
8890;BME280;4481;43.406;24.454;2022-07-22T01:26:10;75676.16;;;-144.09;69.30
8890;BME280;4481;43.406;24.454;2022-07-22T01:28:36;75688.69;;;-144.09;69.79
8890;BME280;4481;43.406;24.454;2022-07-22T01:31:03;75703.31;;;-144.09;70.77
8890;BME280;4481;43.406;24.454;2022-07-22T01:33:29;75699.16;;;-144.09;70.75
8890;BME280;4481;43.406;24.454;2022-07-22T01:35:55;75694.97;;;-144.09;70.72
8890;BME280;4481;43.406;24.454;2022-07-22T01:38:22;75694.97;;;-144.09;70.50
8890;BME280;4481;43.406;24.454;2022-07-22T01:40:48;75701.22;;;-144.09;70.74
8890;BME280;4481;43.406;24.454;2022-07-22T01:43:15;75717.94;;;-144.09;70.97
8890;BME280;4481;43.406;24.454;2022-07-22T01:45:43;75740.94;;;-144.09;71.89
8890;BME280;4481;43.406;24.454;2022-07-22T01:48:10;75726.31;;;-144.09;71.84
8890;BME280;4481;43.406;24.454;2022-07-22T01:50:36;75743.00;;;-144.09;73.06
8890;BME280;4481;43.406;24.454;2022-07-22T01:53:03;75747.19;;;-144.09;72.97
8890;BME280;4481;43.406;24.454;2022-07-22T01:55:30;75749.28;;;-144.09;73.42
8890;BME280;4481;43.406;24.454;2022-07-22T01:57:56;75768.09;;;-144.09;73.47
8890;BME280;4481;43.406;24.454;2022-07-22T02:00:22;75776.44;;;-144.09;73.48
8890;BME280;4481;43.406;24.454;2022-07-22T02:02:48;75801.50;;;-144.09;74.34
8890;BME280;4481;43.406;24.454;2022-07-22T02:05:15;75809.88;;;-144.09;74.17
8890;BME280;4481;43.406;24.454;2022-07-22T02:07:41;75824.50;;;-144.09;74.76
8890;BME280;4481;43.406;24.454;2022-07-22T02:10:08;75824.50;;;-144.09;74.45
8890;BME280;4481;43.406;24.454;2022-07-22T02:12:35;75830.75;;;-144.09;74.62
8890;BME280;4481;43.406;24.454;2022-07-22T02:15:02;75826.56;;;-144.09;74.49
8890;BME280;4481;43.406;24.454;2022-07-22T02:17:28;75839.13;;;-144.09;74.78
8890;BME280;4481;43.406;24.454;2022-07-22T02:19:54;75862.09;;;-144.09;75.36
8890;BME280;4481;43.406;24.454;2022-07-22T02:22:21;75866.28;;;-144.09;75.60
8890;BME280;4481;43.406;24.454;2022-07-22T02:24:47;75864.19;;;-144.09;75.69
8890;BME280;4481;43.406;24.454;2022-07-22T02:27:13;75864.19;;;-144.09;75.55
8890;BME280;4481;43.406;24.454;2022-07-22T02:29:40;75866.28;;;-144.09;76.52
8890;BME280;4481;43.406;24.454;2022-07-22T02:32:06;75880.91;;;-144.09;77.01
8890;BME280;4481;43.406;24.454;2022-07-22T02:34:32;75899.69;;;-144.09;78.03
8890;BME280;4481;43.406;24.454;2022-07-22T02:36:59;75882.97;;;-144.09;78.01
8890;BME280;4481;43.406;24.454;2022-07-22T02:39:25;75903.88;;;-144.09;78.80
8890;BME280;4481;43.406;24.454;2022-07-22T02:41:51;75903.88;;;-144.09;79.27
8890;BME280;4481;43.406;24.454;2022-07-22T02:44:18;75905.97;;;-144.09;80.71
8890;BME280;4481;43.406;24.454;2022-07-22T02:46:45;75918.50;;;-144.09;81.39
8890;BME280;4481;43.406;24.454;2022-07-22T02:49:11;75889.25;;;-144.09;80.52
8890;BME280;4481;43.406;24.454;2022-07-22T02:51:37;75912.22;;;-144.09;79.79
8890;BME280;4481;43.406;24.454;2022-07-22T02:54:04;75922.69;;;-144.09;79.52
8890;BME280;4481;43.406;24.454;2022-07-22T02:56:30;75920.59;;;-144.09;78.84
8890;BME280;4481;43.406;24.454;2022-07-22T02:58:57;75943.56;;;-144.09;79.40
8890;BME280;4481;43.406;24.454;2022-07-22T03:01:23;75954.00;;;-144.09;79.34
8890;BME280;4481;43.406;24.454;2022-07-22T03:03:50;75962.38;;;-144.09;79.50
8890;BME280;4481;43.406;24.454;2022-07-22T03:06:16;75966.56;;;-144.09;79.42
8890;BME280;4481;43.406;24.454;2022-07-22T03:08:42;75983.25;;;-144.09;79.79
8890;BME280;4481;43.406;24.454;2022-07-22T03:11:09;75987.44;;;-144.09;79.78
8890;BME280;4481;43.406;24.454;2022-07-22T03:13:35;75989.53;;;-144.09;79.90
8890;BME280;4481;43.406;24.454;2022-07-22T03:16:01;75977.00;;;-144.09;79.38
8890;BME280;4481;43.406;24.454;2022-07-22T03:18:27;75983.25;;;-144.09;79.27
8890;BME280;4481;43.406;24.454;2022-07-22T03:20:54;75991.63;;;-144.09;79.45
8890;BME280;4481;43.406;24.454;2022-07-22T03:23:20;75991.63;;;-144.09;78.98
8890;BME280;4481;43.406;24.454;2022-07-22T03:25:47;75989.53;;;-144.09;79.20
8890;BME280;4481;43.406;24.454;2022-07-22T03:28:13;76004.16;;;-144.09;79.32
8890;BME280;4481;43.406;24.454;2022-07-22T03:30:39;76006.25;;;-144.09;79.71
8890;BME280;4481;43.406;24.454;2022-07-22T03:33:06;76018.78;;;-144.09;80.12
8890;BME280;4481;43.406;24.454;2022-07-22T03:35:32;76014.59;;;-144.09;80.17
8890;BME280;4481;43.406;24.454;2022-07-22T03:37:59;76006.25;;;-144.09;80.06
8890;BME280;4481;43.406;24.454;2022-07-22T03:40:25;76006.25;;;-144.09;79.93
8890;BME280;4481;43.406;24.454;2022-07-22T03:42:51;76018.78;;;-144.09;80.44
8890;BME280;4481;43.406;24.454;2022-07-22T03:45:18;76027.13;;;-144.09;81.23
8890;BME280;4481;43.406;24.454;2022-07-22T03:47:44;76029.22;;;-144.09;80.76
8890;BME280;4481;43.406;24.454;2022-07-22T03:50:10;76029.22;;;-144.09;80.77
8890;BME280;4481;43.406;24.454;2022-07-22T03:52:37;76031.31;;;-144.09;81.11
8890;BME280;4481;43.406;24.454;2022-07-22T03:55:05;76039.69;;;-144.09;81.71
8890;BME280;4481;43.406;24.454;2022-07-22T03:57:31;76041.75;;;-144.09;81.93
8890;BME280;4481;43.406;24.454;2022-07-22T03:59:57;76041.75;;;-144.09;81.87
8890;BME280;4481;43.406;24.454;2022-07-22T04:02:24;76039.69;;;-144.09;82.33
8890;BME280;4481;43.406;24.454;2022-07-22T04:04:50;76025.06;;;-144.09;81.52
8890;BME280;4481;43.406;24.454;2022-07-22T04:07:16;76020.88;;;-144.09;80.84
8890;BME280;4481;43.406;24.454;2022-07-22T04:09:42;76008.34;;;-144.09;80.75
8890;BME280;4481;43.406;24.454;2022-07-22T04:12:09;76004.16;;;-144.09;80.51
8890;BME280;4481;43.406;24.454;2022-07-22T04:14:36;76012.50;;;-144.09;80.28
8890;BME280;4481;43.406;24.454;2022-07-22T04:17:02;75989.53;;;-144.09;79.44
8890;BME280;4481;43.406;24.454;2022-07-22T04:19:28;75962.38;;;-144.09;79.16
8890;BME280;4481;43.406;24.454;2022-07-22T04:21:54;75956.09;;;-144.09;78.91
8890;BME280;4481;43.406;24.454;2022-07-22T04:24:21;75910.16;;;-144.09;77.90
8890;BME280;4481;43.406;24.454;2022-07-22T04:26:47;75893.44;;;-144.09;77.29
8890;BME280;4481;43.406;24.454;2022-07-22T04:29:14;75878.81;;;-144.09;77.03
8890;BME280;4481;43.406;24.454;2022-07-22T04:31:40;75847.47;;;-144.09;76.20
8890;BME280;4481;43.406;24.454;2022-07-22T04:34:06;75820.31;;;-144.09;75.69
8890;BME280;4481;43.406;24.454;2022-07-22T04:36:32;75780.63;;;-144.09;74.46
8890;BME280;4481;43.406;24.454;2022-07-22T04:38:58;75728.38;;;-144.09;73.11
8890;BME280;4481;43.406;24.454;2022-07-22T04:41:25;75694.97;;;-144.09;72.48
8890;BME280;4481;43.406;24.454;2022-07-22T04:43:51;75686.59;;;-144.09;71.77
8890;BME280;4481;43.406;24.454;2022-07-22T04:46:18;75665.72;;;-144.09;69.69
8890;BME280;4481;43.406;24.454;2022-07-22T04:48:44;75646.91;;;-144.09;69.03
8890;BME280;4481;43.406;24.454;2022-07-22T04:51:10;75590.50;;;-144.09;67.85
8890;BME280;4481;43.406;24.454;2022-07-22T04:53:37;75527.84;;;-144.09;65.79
8890;BME280;4481;43.406;24.454;2022-07-22T04:56:03;75456.81;;;-144.09;63.76
8890;BME280;4481;43.406;24.454;2022-07-22T04:58:29;75427.59;;;-144.09;62.88
8890;BME280;4481;43.406;24.454;2022-07-22T05:00:56;75398.34;;;-144.09;61.97
8890;BME280;4481;43.406;24.454;2022-07-22T05:03:23;75394.16;;;-144.09;61.48
8890;BME280;4481;43.406;24.454;2022-07-22T05:05:50;75362.81;;;-144.09;60.26
8890;BME280;4481;43.406;24.454;2022-07-22T05:08:17;75333.59;;;-144.09;59.25
8890;BME280;4481;43.406;24.454;2022-07-22T05:10:43;75344.03;;;-144.09;59.64
8890;BME280;4481;43.406;24.454;2022-07-22T05:13:12;75277.19;;;-144.09;57.80
8890;BME280;4481;43.406;24.454;2022-07-22T05:15:38;75247.94;;;-144.09;57.06
8890;BME280;4481;43.406;24.454;2022-07-22T05:18:04;75243.75;;;-144.09;57.18
8890;BME280;4481;43.406;24.454;2022-07-22T05:20:31;75231.22;;;-144.09;57.00
8890;BME280;4481;43.406;24.454;2022-07-22T05:22:58;75179.00;;;-144.09;53.81
8890;BME280;4481;43.406;24.454;2022-07-22T05:25:24;75137.25;;;-144.09;51.70
8890;BME280;4481;43.406;24.454;2022-07-22T05:27:51;75133.06;;;-144.09;51.39
8890;BME280;4481;43.406;24.454;2022-07-22T05:30:18;75137.25;;;-144.09;52.92
8890;BME280;4481;43.406;24.454;2022-07-22T05:32:44;75133.06;;;-144.09;52.98
8890;BME280;4481;43.406;24.454;2022-07-22T05:35:11;75062.03;;;-144.09;50.07
8890;BME280;4481;43.406;24.454;2022-07-22T05:37:38;74997.31;;;-144.09;47.21
8890;BME280;4481;43.406;24.454;2022-07-22T05:40:05;75034.91;;;-144.09;48.27
8890;BME280;4481;43.406;24.454;2022-07-22T05:42:32;74978.50;;;-144.09;47.26
8890;BME280;4481;43.406;24.454;2022-07-22T05:44:58;74953.44;;;-144.09;43.90
8890;BME280;4481;43.406;24.454;2022-07-22T05:47:24;74938.81;;;-144.09;45.12
8890;BME280;4481;43.406;24.454;2022-07-22T05:49:50;74897.06;;;-144.09;44.64
8890;BME280;4481;43.406;24.454;2022-07-22T05:52:17;74876.16;;;-144.09;43.69
8890;BME280;4481;43.406;24.454;2022-07-22T05:54:43;74842.75;;;-144.09;43.26
8890;BME280;4481;43.406;24.454;2022-07-22T05:57:10;74800.97;;;-144.09;41.76
8890;BME280;4481;43.406;24.454;2022-07-22T05:59:36;74794.72;;;-144.09;42.26
8890;BME280;4481;43.406;24.454;2022-07-22T06:02:03;74746.69;;;-144.09;39.25
8890;BME280;4481;43.406;24.454;2022-07-22T06:04:29;74746.69;;;-144.09;39.43
8890;BME280;4481;43.406;24.454;2022-07-22T06:06:56;74707.00;;;-144.09;39.09
8890;BME280;4481;43.406;24.454;2022-07-22T06:09:22;74707.00;;;-144.09;39.12
8890;BME280;4481;43.406;24.454;2022-07-22T06:11:49;74723.69;;;-144.09;39.29
8890;BME280;4481;43.406;24.454;2022-07-22T06:14:15;74740.41;;;-144.09;38.39
8890;BME280;4481;43.406;24.454;2022-07-22T06:16:41;74694.47;;;-144.09;37.50
8890;BME280;4481;43.406;24.454;2022-07-22T06:19:07;74656.88;;;-144.09;36.49
8890;BME280;4481;43.406;24.454;2022-07-22T06:21:34;74646.44;;;-144.09;35.87
8890;BME280;4481;43.406;24.454;2022-07-22T06:24:01;74621.38;;;-144.09;35.46
8890;BME280;4481;43.406;24.454;2022-07-22T06:26:28;74617.19;;;-144.09;35.42
8890;BME280;4481;43.406;24.454;2022-07-22T06:28:54;74633.91;;;-144.09;36.11
8890;BME280;4481;43.406;24.454;2022-07-22T06:31:21;74617.19;;;-144.09;36.15
8890;BME280;4481;43.406;24.454;2022-07-22T06:33:47;74623.47;;;-144.09;35.87
8890;BME280;4481;43.406;24.454;2022-07-22T06:36:13;74581.69;;;-144.09;35.65
8890;BME280;4481;43.406;24.454;2022-07-22T06:38:40;74575.44;;;-144.09;34.79
8890;BME280;4481;43.406;24.454;2022-07-22T06:41:06;74610.94;;;-144.09;35.46
8890;BME280;4481;43.406;24.454;2022-07-22T06:43:33;74629.72;;;-144.09;34.92
8890;BME280;4481;43.406;24.454;2022-07-22T06:46:00;74608.84;;;-144.09;33.31
8890;BME280;4481;43.406;24.454;2022-07-22T06:48:26;74567.06;;;-144.09;33.35
8890;BME280;4481;43.406;24.454;2022-07-22T06:50:52;74573.34;;;-144.09;33.40
8890;BME280;4481;43.406;24.454;2022-07-22T06:53:18;74606.75;;;-144.09;33.39
8890;BME280;4481;43.406;24.454;2022-07-22T06:55:45;74581.69;;;-144.09;32.38
8890;BME280;4481;43.406;24.454;2022-07-22T06:58:11;74604.66;;;-144.09;32.76
8890;BME280;4481;43.406;24.454;2022-07-22T07:00:37;74575.44;;;-144.09;32.82
8890;BME280;4481;43.406;24.454;2022-07-22T07:03:04;74602.56;;;-144.09;35.04
8890;BME280;4481;43.406;24.454;2022-07-22T07:05:30;74594.22;;;-144.09;35.03
8890;BME280;4481;43.406;24.454;2022-07-22T07:07:57;74535.75;;;-144.09;34.27
8890;BME280;4481;43.406;24.454;2022-07-22T07:10:23;74506.50;;;-144.09;33.38
8890;BME280;4481;43.406;24.454;2022-07-22T07:12:49;74481.44;;;-144.09;32.45
8890;BME280;4481;43.406;24.454;2022-07-22T07:15:15;74435.50;;;-144.09;32.60
8890;BME280;4481;43.406;24.454;2022-07-22T07:17:41;74491.91;;;-144.09;33.16
8890;BME280;4481;43.406;24.454;2022-07-22T07:20:09;74500.25;;;-144.09;33.05
8890;BME280;4481;43.406;24.454;2022-07-22T07:22:36;74485.63;;;-144.09;33.05
8890;BME280;4481;43.406;24.454;2022-07-22T07:25:04;74475.19;;;-144.09;32.93
8890;BME280;4481;43.406;24.454;2022-07-22T07:27:30;74458.47;;;-144.09;32.20
8890;BME280;4481;43.406;24.454;2022-07-22T07:29:56;74437.59;;;-144.09;32.45
8890;BME280;4481;43.406;24.454;2022-07-22T07:32:23;74414.63;;;-144.09;32.52
8890;BME280;4481;43.406;24.454;2022-07-22T07:34:49;74425.06;;;-144.09;31.76
8890;BME280;4481;43.406;24.454;2022-07-22T07:37:16;74397.91;;;-144.09;32.10
8890;BME280;4481;43.406;24.454;2022-07-22T07:39:42;74464.75;;;-144.09;31.76
8890;BME280;4481;43.406;24.454;2022-07-22T07:42:08;74429.25;;;-144.09;31.92
8890;BME280;4481;43.406;24.454;2022-07-22T07:44:34;74483.53;;;-144.09;32.31
8890;BME280;4481;43.406;24.454;2022-07-22T07:47:01;74529.47;;;-144.09;33.50
8890;BME280;4481;43.406;24.454;2022-07-22T07:49:28;74552.47;;;-144.09;34.06
8890;BME280;4481;43.406;24.454;2022-07-22T07:51:54;74481.44;;;-144.09;33.55
8890;BME280;4481;43.406;24.454;2022-07-22T07:54:21;74452.22;;;-144.09;33.19
8890;BME280;4481;43.406;24.454;2022-07-22T07:56:47;74481.44;;;-144.09;32.69
8890;BME280;4481;43.406;24.454;2022-07-22T07:59:14;74510.69;;;-144.09;33.21
8890;BME280;4481;43.406;24.454;2022-07-22T08:01:40;74535.75;;;-144.09;34.01
8890;BME280;4481;43.406;24.454;2022-07-22T08:04:06;74636.00;;;-144.09;34.88
8890;BME280;4481;43.406;24.454;2022-07-22T08:06:32;74679.84;;;-144.09;35.63
8890;BME280;4481;43.406;24.454;2022-07-22T08:08:58;74652.69;;;-144.09;35.76
8890;BME280;4481;43.406;24.454;2022-07-22T08:11:25;74623.47;;;-144.09;35.29
8890;BME280;4481;43.406;24.454;2022-07-22T08:13:52;74638.06;;;-144.09;35.42
8890;BME280;4481;43.406;24.454;2022-07-22T08:16:18;74535.75;;;-144.09;34.21
8890;BME280;4481;43.406;24.454;2022-07-22T08:18:44;74458.47;;;-144.09;33.85
8890;BME280;4481;43.406;24.454;2022-07-22T08:21:10;74433.41;;;-144.09;33.13
8890;BME280;4481;43.406;24.454;2022-07-22T08:23:37;74485.63;;;-144.09;33.34
8890;BME280;4481;43.406;24.454;2022-07-22T08:26:03;74439.69;;;-144.09;33.63
8890;BME280;4481;43.406;24.454;2022-07-22T08:28:30;74452.22;;;-144.09;33.06
8890;BME280;4481;43.406;24.454;2022-07-22T08:30:56;74506.50;;;-144.09;34.29
8890;BME280;4481;43.406;24.454;2022-07-22T08:33:22;74491.91;;;-144.09;34.20
8890;BME280;4481;43.406;24.454;2022-07-22T08:35:49;74450.13;;;-144.09;33.77
8890;BME280;4481;43.406;24.454;2022-07-22T08:38:15;74506.50;;;-144.09;33.32
8890;BME280;4481;43.406;24.454;2022-07-22T08:40:41;74519.03;;;-144.09;33.36
8890;BME280;4481;43.406;24.454;2022-07-22T08:43:07;74546.19;;;-144.09;34.84
8890;BME280;4481;43.406;24.454;2022-07-22T08:45:34;74527.41;;;-144.09;33.62
8890;BME280;4481;43.406;24.454;2022-07-22T08:48:01;74506.50;;;-144.09;33.92
8890;BME280;4481;43.406;24.454;2022-07-22T08:50:29;74521.13;;;-144.09;33.09
8890;BME280;4481;43.406;24.454;2022-07-22T08:52:56;74529.47;;;-144.09;33.39
8890;BME280;4481;43.406;24.454;2022-07-22T08:55:23;74533.66;;;-144.09;33.89
8890;BME280;4481;43.406;24.454;2022-07-22T08:57:49;74483.53;;;-144.09;33.63
8890;BME280;4481;43.406;24.454;2022-07-22T09:00:19;74558.72;;;-144.09;33.62
8890;BME280;4481;43.406;24.454;2022-07-22T09:02:46;74623.47;;;-144.09;34.82
8890;BME280;4481;43.406;24.454;2022-07-22T09:05:14;74542.00;;;-144.09;34.63
8890;BME280;4481;43.406;24.454;2022-07-22T09:07:43;74471.00;;;-144.09;34.34
8890;BME280;4481;43.406;24.454;2022-07-22T09:10:12;74443.88;;;-144.09;33.23
8890;BME280;4481;43.406;24.454;2022-07-22T09:12:51;74429.25;;;-144.09;32.34
8890;BME280;4481;43.406;24.454;2022-07-22T09:15:28;74389.56;;;-144.09;32.45
8890;BME280;4481;43.406;24.454;2022-07-22T09:17:56;74433.41;;;-144.09;32.10
8890;BME280;4481;43.406;24.454;2022-07-22T09:20:23;74548.28;;;-144.09;33.88
8890;BME280;4481;43.406;24.454;2022-07-22T09:22:50;74531.56;;;-144.09;34.20
8890;BME280;4481;43.406;24.454;2022-07-22T09:25:22;74552.47;;;-144.09;34.06
8890;BME280;4481;43.406;24.454;2022-07-22T09:27:50;74493.97;;;-144.09;33.05
8890;BME280;4481;43.406;24.454;2022-07-22T09:30:19;74481.44;;;-144.09;33.81
8890;BME280;4481;43.406;24.454;2022-07-22T09:32:46;74452.22;;;-144.09;32.42
8890;BME280;4481;43.406;24.454;2022-07-22T09:35:13;74450.13;;;-144.09;32.98
8890;BME280;4481;43.406;24.454;2022-07-22T09:37:50;74422.97;;;-144.09;33.07
8890;BME280;4481;43.406;24.454;2022-07-22T09:40:19;74439.69;;;-144.09;32.12
8890;BME280;4481;43.406;24.454;2022-07-22T09:42:47;74456.41;;;-144.09;32.24
8890;BME280;4481;43.406;24.454;2022-07-22T09:45:14;74452.22;;;-144.09;32.42
8890;BME280;4481;43.406;24.454;2022-07-22T09:47:41;74437.59;;;-144.09;33.34
8890;BME280;4481;43.406;24.454;2022-07-22T09:50:20;74437.59;;;-144.09;33.19
8890;BME280;4481;43.406;24.454;2022-07-22T09:52:47;74431.34;;;-144.09;32.60
8890;BME280;4481;43.406;24.454;2022-07-22T09:55:16;74406.28;;;-144.09;32.35
8890;BME280;4481;43.406;24.454;2022-07-22T09:57:43;74443.88;;;-144.09;32.03
8890;BME280;4481;43.406;24.454;2022-07-22T10:00:10;74433.41;;;-144.09;31.64
8890;BME280;4481;43.406;24.454;2022-07-22T10:02:40;74416.72;;;-144.09;31.69
8890;BME280;4481;43.406;24.454;2022-07-22T10:05:08;74425.06;;;-144.09;32.10
8890;BME280;4481;43.406;24.454;2022-07-22T10:07:38;74420.88;;;-144.09;32.08
8890;BME280;4481;43.406;24.454;2022-07-22T10:10:06;74433.41;;;-144.09;32.09
8890;BME280;4481;43.406;24.454;2022-07-22T10:12:33;74491.91;;;-144.09;31.82
8890;BME280;4481;43.406;24.454;2022-07-22T10:15:01;74471.00;;;-144.09;31.95
8890;BME280;4481;43.406;24.454;2022-07-22T10:17:27;74535.75;;;-144.09;32.59
8890;BME280;4481;43.406;24.454;2022-07-22T10:19:54;74527.41;;;-144.09;32.22
8890;BME280;4481;43.406;24.454;2022-07-22T10:22:44;74514.88;;;-144.09;32.74
8890;BME280;4481;43.406;24.454;2022-07-22T10:25:13;74468.91;;;-144.09;32.93
8890;BME280;4481;43.406;24.454;2022-07-22T10:27:47;74452.22;;;-144.09;32.98
8890;BME280;4481;43.406;24.454;2022-07-22T10:30:18;74425.06;;;-144.09;33.18
8890;BME280;4481;43.406;24.454;2022-07-22T10:32:45;74397.91;;;-144.09;32.00
8890;BME280;4481;43.406;24.454;2022-07-22T10:35:27;74397.91;;;-144.09;30.70
8890;BME280;4481;43.406;24.454;2022-07-22T10:37:56;74397.91;;;-144.09;30.51
8890;BME280;4481;43.406;24.454;2022-07-22T10:40:25;74445.94;;;-144.09;30.24
8890;BME280;4481;43.406;24.454;2022-07-22T10:43:10;74437.59;;;-144.09;31.26
8890;BME280;4481;43.406;24.454;2022-07-22T10:45:42;74410.44;;;-144.09;32.62
8890;BME280;4481;43.406;24.454;2022-07-22T10:48:12;74391.66;;;-144.09;31.05
8890;BME280;4481;43.406;24.454;2022-07-22T10:50:44;74395.84;;;-144.09;31.11
8890;BME280;4481;43.406;24.454;2022-07-22T10:53:12;74400.00;;;-144.09;31.40
8890;BME280;4481;43.406;24.454;2022-07-22T10:55:57;74391.66;;;-144.09;31.29
8890;BME280;4481;43.406;24.454;2022-07-22T10:58:58;74391.66;;;-144.09;32.20
8890;BME280;4481;43.406;24.454;2022-07-22T11:01:27;74383.31;;;-144.09;30.73
8890;BME280;4481;43.406;24.454;2022-07-22T11:03:54;74389.56;;;-144.09;30.12
8890;BME280;4481;43.406;24.454;2022-07-22T11:06:24;74450.13;;;-144.09;31.42
8890;BME280;4481;43.406;24.454;2022-07-22T11:08:54;74450.13;;;-144.09;31.24
8890;BME280;4481;43.406;24.454;2022-07-22T11:11:40;74531.56;;;-144.09;32.04
8890;BME280;4481;43.406;24.454;2022-07-22T11:14:21;74502.34;;;-144.09;32.63
8890;BME280;4481;43.406;24.454;2022-07-22T11:16:50;74454.31;;;-144.09;32.70
8890;BME280;4481;43.406;24.454;2022-07-22T11:19:21;74420.88;;;-144.09;32.14
8890;BME280;4481;43.406;24.454;2022-07-22T11:21:52;74385.38;;;-144.09;30.67
8890;BME280;4481;43.406;24.454;2022-07-22T11:24:20;74362.41;;;-144.09;31.92
8890;BME280;4481;43.406;24.454;2022-07-22T11:26:48;74385.38;;;-144.09;30.82
8890;BME280;4481;43.406;24.454;2022-07-22T11:29:16;74351.97;;;-144.09;29.54
8890;BME280;4481;43.406;24.454;2022-07-22T11:31:43;74339.44;;;-144.09;29.42
8890;BME280;4481;43.406;24.454;2022-07-22T11:34:11;74337.38;;;-144.09;28.30
8890;BME280;4481;43.406;24.454;2022-07-22T11:36:39;74333.19;;;-144.09;28.64
8890;BME280;4481;43.406;24.454;2022-07-22T11:39:06;74318.56;;;-144.09;28.85
8890;BME280;4481;43.406;24.454;2022-07-22T11:41:34;74331.09;;;-144.09;27.94
8890;BME280;4481;43.406;24.454;2022-07-22T11:44:01;74324.84;;;-144.09;27.66
8890;BME280;4481;43.406;24.454;2022-07-22T11:46:28;74322.75;;;-144.09;27.88
8890;BME280;4481;43.406;24.454;2022-07-22T11:49:00;74308.13;;;-144.09;26.60
8890;BME280;4481;43.406;24.454;2022-07-22T11:51:28;74341.53;;;-144.09;27.41
8890;BME280;4481;43.406;24.454;2022-07-22T11:53:55;74306.03;;;-144.09;29.23
8890;BME280;4481;43.406;24.454;2022-07-22T11:56:21;74295.59;;;-144.09;27.58
8890;BME280;4481;43.406;24.454;2022-07-22T11:58:49;74291.41;;;-144.09;26.77
8890;BME280;4481;43.406;24.454;2022-07-22T12:01:20;74293.50;;;-144.09;26.61
8890;BME280;4481;43.406;24.454;2022-07-22T12:03:48;74272.63;;;-144.09;27.61
8890;BME280;4481;43.406;24.454;2022-07-22T12:06:17;74274.72;;;-144.09;27.32
8890;BME280;4481;43.406;24.454;2022-07-22T12:08:45;74276.81;;;-144.09;27.08
8890;BME280;4481;43.406;24.454;2022-07-22T12:11:14;74255.94;;;-144.09;27.31
8890;BME280;4481;43.406;24.454;2022-07-22T12:13:41;74237.13;;;-144.09;27.88
8890;BME280;4481;43.406;24.454;2022-07-22T12:16:21;74220.44;;;-144.09;27.17
8890;BME280;4481;43.406;24.454;2022-07-22T12:18:52;74201.63;;;-144.09;27.96
8890;BME280;4481;43.406;24.454;2022-07-22T12:21:18;74187.00;;;-144.09;27.53
8890;BME280;4481;43.406;24.454;2022-07-22T12:23:50;74182.84;;;-144.09;28.20
8890;BME280;4481;43.406;24.454;2022-07-22T12:26:17;74214.16;;;-144.09;27.62
8890;BME280;4481;43.406;24.454;2022-07-22T12:28:43;74228.78;;;-144.09;27.98
8890;BME280;4481;43.406;24.454;2022-07-22T12:31:09;74199.53;;;-144.09;27.70
8890;BME280;4481;43.406;24.454;2022-07-22T12:33:36;74178.66;;;-144.09;27.85
8890;BME280;4481;43.406;24.454;2022-07-22T12:36:04;74187.00;;;-144.09;27.81
8890;BME280;4481;43.406;24.454;2022-07-22T12:38:30;74172.41;;;-144.09;27.70
8890;BME280;4481;43.406;24.454;2022-07-22T12:40:56;74174.50;;;-144.09;27.79
8890;BME280;4481;43.406;24.454;2022-07-22T12:43:26;74170.31;;;-144.09;27.97
8890;BME280;4481;43.406;24.454;2022-07-22T12:45:52;74178.66;;;-144.09;27.85
8890;BME280;4481;43.406;24.454;2022-07-22T12:48:18;74180.75;;;-144.09;27.49
8890;BME280;4481;43.406;24.454;2022-07-22T12:50:54;74207.91;;;-144.09;27.96